Time;durP1;ratioP1;P1;durP2;ratioP2;P2;SDS_P1;SDS_P2;PMS_P1;PMS_P2;Temp;Humidity;BMP_temperature;BMP_pressure;BME280_temperature;BME280_humidity;BME280_pressure;Samples;Min_cycle;Max_cycle;Signal;HPM_P1;HPM_P2
2023/04/01 00:00:09;;;;;;;7.55;5.40;;;;;;;;;;6187039;23;20012;-67
2023/04/01 00:02:37;;;;;;;9.50;5.32;;;;;;;;;;6186063;23;19997;-67
2023/04/01 00:05:03;;;;;;;7.20;4.82;;;;;;;;;;6186021;23;20083;-67
2023/04/01 00:07:28;;;;;;;7.50;4.60;;;;;;;;;;6186546;23;20000;-67
2023/04/01 00:09:54;;;;;;;8.65;5.18;;;;;;;;;;6186196;23;20421;-67
2023/04/01 00:12:20;;;;;;;7.68;4.90;;;;;;;;;;6186724;23;20009;-67
2023/04/01 00:14:45;;;;;;;7.45;4.68;;;;;;;;;;6186201;23;20048;-67
2023/04/01 00:17:11;;;;;;;6.75;5.10;;;;;;;;;;6186001;23;20419;-67
2023/04/01 00:19:36;;;;;;;10.93;5.20;;;;;;;;;;6186256;23;20009;-68
2023/04/01 00:22:02;;;;;;;39.72;16.73;;;;;;;;;;6184540;23;20009;-69
2023/04/01 00:24:27;;;;;;;37.40;17.02;;;;;;;;;;6185644;23;20001;-69
2023/04/01 00:26:53;;;;;;;20.63;10.55;;;;;;;;;;6185496;23;20004;-69
2023/04/01 00:29:18;;;;;;;15.38;7.70;;;;;;;;;;6185949;23;20016;-67
2023/04/01 00:31:44;;;;;;;16.55;9.07;;;;;;;;;;6185874;23;20377;-68
2023/04/01 00:34:09;;;;;;;16.92;10.00;;;;;;;;;;6184554;23;20279;-66
2023/04/01 00:36:35;;;;;;;11.18;6.50;;;;;;;;;;6186347;23;20005;-69
2023/04/01 00:39:00;;;;;;;6.97;4.82;;;;;;;;;;6187878;23;20299;-69
2023/04/01 00:41:26;;;;;;;8.02;4.82;;;;;;;;;;6187890;23;20028;-69
2023/04/01 00:43:51;;;;;;;6.03;4.93;;;;;;;;;;6188094;23;20005;-69
2023/04/01 00:46:17;;;;;;;7.65;4.85;;;;;;;;;;6161182;23;20016;-67
2023/04/01 00:48:45;;;;;;;6.05;4.72;;;;;;;;;;6186176;23;20159;-69
2023/04/01 00:51:27;;;;;;;6.32;4.97;;;;;;;;;;6187767;23;20064;-68
2023/04/01 00:53:53;;;;;;;7.97;5.00;;;;;;;;;;6186434;23;20015;-67
2023/04/01 00:56:22;;;;;;;6.82;4.50;;;;;;;;;;6187487;23;20013;-68
2023/04/01 00:58:49;;;;;;;8.23;5.10;;;;;;;;;;6187363;23;20005;-68
2023/04/01 01:01:15;;;;;;;12.95;9.88;;;;;;;;;;6161165;23;20013;-68
2023/04/01 01:03:40;;;;;;;5.63;3.60;;;;;;;;;;6186130;23;20011;-67
2023/04/01 01:06:09;;;;;;;6.85;4.15;;;;;;;;;;6186003;23;20033;-67
2023/04/01 01:08:47;;;;;;;3.85;3.38;;;;;;;;;;6186190;23;19997;-67
2023/04/01 01:11:14;;;;;;;5.35;3.80;;;;;;;;;;6186164;23;20383;-68
2023/04/01 01:14:09;;;;;;;4.45;3.78;;;;;;;;;;6185951;23;20426;-66
2023/04/01 01:16:39;;;;;;;6.68;4.90;;;;;;;;;;6133700;23;20017;-65
2023/04/01 01:19:07;;;;;;;8.82;5.28;;;;;;;;;;6187704;23;20001;-65
2023/04/01 01:21:41;;;;;;;6.07;4.68;;;;;;;;;;6185915;23;20012;-65
2023/04/01 01:24:17;;;;;;;5.53;4.38;;;;;;;;;;6187466;23;20460;-65
2023/04/01 01:26:57;;;;;;;6.05;4.13;;;;;;;;;;6187509;23;20481;-65
2023/04/01 01:29:42;;;;;;;7.28;4.55;;;;;;;;;;6187665;23;20099;-65
2023/04/01 01:32:23;;;;;;;8.25;5.25;;;;;;;;;;6187225;23;20311;-67
2023/04/01 01:34:55;;;;;;;11.23;6.67;;;;;;;;;;6186255;23;20307;-65
2023/04/01 01:37:22;;;;;;;11.13;5.80;;;;;;;;;;6185796;23;20009;-65
2023/04/01 01:39:51;;;;;;;11.38;6.97;;;;;;;;;;6187707;23;20004;-66
2023/04/01 01:42:17;;;;;;;14.23;7.53;;;;;;;;;;6187879;23;20393;-66
2023/04/01 01:44:45;;;;;;;13.23;7.15;;;;;;;;;;6186091;23;20024;-65
2023/04/01 01:47:11;;;;;;;13.20;7.60;;;;;;;;;;6185526;23;20437;-65
2023/04/01 01:49:36;;;;;;;9.55;6.85;;;;;;;;;;6185331;23;20009;-65
2023/04/01 01:52:03;;;;;;;9.90;6.70;;;;;;;;;;6185618;23;20337;-65
2023/04/01 01:54:28;;;;;;;8.70;6.35;;;;;;;;;;6187507;23;20452;-66
2023/04/01 01:57:14;;;;;;;9.73;6.45;;;;;;;;;;6185490;23;20005;-67
2023/04/01 01:59:43;;;;;;;11.23;6.38;;;;;;;;;;6185734;23;20352;-67
2023/04/01 02:02:13;;;;;;;8.50;5.78;;;;;;;;;;6165858;23;20079;-60
2023/04/01 02:04:40;;;;;;;10.50;6.40;;;;;;;;;;6155974;23;20385;-60
2023/04/01 02:07:27;;;;;;;12.98;6.30;;;;;;;;;;6155821;23;20096;-59
2023/04/01 02:09:53;;;;;;;7.80;5.50;;;;;;;;;;6155628;23;20031;-62
2023/04/01 02:12:19;;;;;;;10.98;5.60;;;;;;;;;;6156537;23;20457;-59
2023/04/01 02:14:51;;;;;;;7.32;5.30;;;;;;;;;;6155654;23;20373;-58
2023/04/01 02:17:18;;;;;;;10.40;7.10;;;;;;;;;;6157376;23;20013;-59
2023/04/01 02:19:52;;;;;;;10.15;7.00;;;;;;;;;;6155546;23;20010;-58
2023/04/01 02:22:21;;;;;;;7.40;5.55;;;;;;;;;;6155549;23;20001;-59
2023/04/01 02:24:47;;;;;;;5.82;4.18;;;;;;;;;;6155424;23;20002;-58
2023/04/01 02:27:13;;;;;;;5.05;4.15;;;;;;;;;;6157420;23;20010;-58
2023/04/01 02:29:38;;;;;;;5.25;4.38;;;;;;;;;;6155415;23;20308;-58
2023/04/01 02:32:07;;;;;;;6.85;4.05;;;;;;;;;;6155372;23;20010;-58
2023/04/01 02:34:32;;;;;;;6.22;4.47;;;;;;;;;;6157109;23;20065;-58
2023/04/01 02:36:58;;;;;;;5.35;4.15;;;;;;;;;;6155349;23;20006;-58
2023/04/01 02:39:25;;;;;;;4.63;3.92;;;;;;;;;;6156956;23;20001;-59
2023/04/01 02:41:50;;;;;;;6.03;4.35;;;;;;;;;;6155830;23;20002;-59
2023/04/01 02:44:16;;;;;;;6.28;4.78;;;;;;;;;;6155305;23;20004;-59
2023/04/01 02:46:42;;;;;;;6.10;4.05;;;;;;;;;;6155342;23;20005;-58
2023/04/01 02:49:08;;;;;;;5.00;4.18;;;;;;;;;;6155073;23;20460;-59
2023/04/01 02:51:34;;;;;;;5.00;4.20;;;;;;;;;;6157037;23;20450;-59
2023/04/01 02:53:59;;;;;;;6.57;4.10;;;;;;;;;;6155821;23;19994;-59
2023/04/01 02:56:25;;;;;;;5.70;4.30;;;;;;;;;;6155105;23;20017;-58
2023/04/01 02:58:51;;;;;;;5.15;4.03;;;;;;;;;;6156729;23;20083;-58
2023/04/01 03:01:16;;;;;;;5.55;4.30;;;;;;;;;;6155179;23;19993;-58
2023/04/01 03:03:42;;;;;;;9.15;5.60;;;;;;;;;;6155587;23;20028;-58
2023/04/01 03:06:08;;;;;;;10.48;6.60;;;;;;;;;;6156693;23;20009;-58
2023/04/01 03:08:34;;;;;;;7.47;5.47;;;;;;;;;;6155929;23;20453;-58
2023/04/01 03:10:59;;;;;;;7.60;5.60;;;;;;;;;;6156645;23;20009;-58
2023/04/01 03:13:25;;;;;;;6.07;4.65;;;;;;;;;;6155258;23;20005;-58
2023/04/01 03:15:51;;;;;;;5.15;4.10;;;;;;;;;;6156570;23;20346;-59
2023/04/01 03:18:16;;;;;;;5.28;4.43;;;;;;;;;;6157259;23;20077;-59
2023/04/01 03:20:41;;;;;;;4.93;3.60;;;;;;;;;;6130487;23;20010;-58
2023/04/01 03:23:07;;;;;;;4.20;3.80;;;;;;;;;;6154940;23;20002;-58
2023/04/01 03:25:33;;;;;;;4.72;3.80;;;;;;;;;;6155014;23;20009;-58
2023/04/01 03:27:59;;;;;;;5.03;4.45;;;;;;;;;;6179795;23;20485;-58
2023/04/01 03:30:25;;;;;;;7.35;4.53;;;;;;;;;;6155361;23;20076;-59
2023/04/01 03:32:50;;;;;;;7.00;5.07;;;;;;;;;;6157206;23;20004;-60
2023/04/01 03:35:16;;;;;;;6.50;4.93;;;;;;;;;;6156372;23;20006;-60
2023/04/01 03:37:42;;;;;;;6.03;4.95;;;;;;;;;;6155366;23;20334;-60
2023/04/01 03:40:07;;;;;;;5.97;4.82;;;;;;;;;;6154311;23;20093;-61
2023/04/01 03:42:33;;;;;;;6.57;4.80;;;;;;;;;;6155739;23;20005;-60
2023/04/01 03:44:59;;;;;;;7.72;5.75;;;;;;;;;;6156518;23;20008;-61
2023/04/01 03:47:24;;;;;;;9.40;6.90;;;;;;;;;;6155152;23;20010;-60
2023/04/01 03:49:50;;;;;;;8.00;6.30;;;;;;;;;;6155016;23;20056;-59
2023/04/01 03:52:15;;;;;;;6.25;5.32;;;;;;;;;;6154781;23;20011;-60
2023/04/01 03:54:41;;;;;;;7.05;5.53;;;;;;;;;;6154803;23;20064;-60
2023/04/01 03:57:07;;;;;;;8.43;5.40;;;;;;;;;;6154497;23;20013;-59
2023/04/01 03:59:34;;;;;;;5.13;4.63;;;;;;;;;;6155084;23;19989;-60
2023/04/01 04:02:01;;;;;;;5.10;4.57;;;;;;;;;;6154778;23;20013;-61
2023/04/01 04:04:27;;;;;;;5.82;4.80;;;;;;;;;;6154805;23;20017;-61
2023/04/01 04:06:54;;;;;;;5.70;4.88;;;;;;;;;;6162667;23;20025;-67
2023/04/01 04:09:23;;;;;;;;;;;;;;;;;;6190014;23;20011;-61
2023/04/01 04:11:49;;;;;;;11.43;6.50;;;;;;;;;;6190570;23;19978;-60
2023/04/01 04:14:14;;;;;;;10.45;6.38;;;;;;;;;;6217389;23;20328;-58
2023/04/01 04:16:41;;;;;;;12.02;6.63;;;;;;;;;;6191470;23;20016;-58
2023/04/01 04:19:06;;;;;;;10.45;6.22;;;;;;;;;;6191536;23;20507;-58
2023/04/01 04:21:34;;;;;;;8.88;5.72;;;;;;;;;;6191724;23;20004;-58
2023/04/01 04:24:00;;;;;;;10.15;5.50;;;;;;;;;;6191337;23;19997;-58
2023/04/01 04:27:03;;;;;;;10.07;6.50;;;;;;;;;;6169614;23;20069;-66
2023/04/01 04:30:09;;;;;;;5.72;4.20;;;;;;;;;;6127549;23;20044;-93
2023/04/01 04:33:21;;;;;;;;;;;;;;;;;;;;;
2023/04/01 04:36:15;;;;;;;;;;;;;;;;;;;;;
2023/04/01 04:39:09;;;;;;;4.85;3.75;;;;;;;;;;6127310;23;20029;-90
2023/04/01 04:42:03;;;;;;;6.80;4.55;;;;;;;;;;6127410;23;20037;-91
2023/04/01 04:48:47;;;;;;;4.93;3.97;;;;;;;;;;6128618;23;20008;-92
2023/04/01 04:51:44;;;;;;;8.60;4.80;;;;;;;;;;6094290;23;20033;-90
2023/04/01 04:54:30;;;;;;;10.70;5.82;;;;;;;;;;6006800;23;20030;-91
2023/04/01 04:57:10;;;;;;;13.70;7.85;;;;;;;;;;6127198;23;20018;-90
2023/04/01 04:59:42;;;;;;;14.65;7.63;;;;;;;;;;6127627;23;20397;-92
2023/04/01 05:02:14;;;;;;;10.45;7.63;;;;;;;;;;6126636;23;20009;-89
2023/04/01 05:05:00;;;;;;;16.88;11.25;;;;;;;;;;6127291;23;20057;-92
2023/04/01 05:07:29;;;;;;;20.40;14.45;;;;;;;;;;6127648;23;20002;-92
2023/04/01 05:10:00;;;;;;;20.85;11.90;;;;;;;;;;6128301;23;20010;-91
2023/04/01 05:12:35;;;;;;;23.75;14.15;;;;;;;;;;6128196;23;20426;-92
2023/04/01 05:15:10;;;;;;;29.73;13.57;;;;;;;;;;6102764;23;20017;-92
2023/04/01 05:18:02;;;;;;;43.25;17.70;;;;;;;;;;6103471;23;20081;-93
2023/04/01 05:20:30;;;;;;;59.28;22.80;;;;;;;;;;6103515;23;20033;-89
2023/04/01 05:23:46;;;;;;;52.35;22.73;;;;;;;;;;6102632;23;19998;-90
2023/04/01 05:26:13;;;;;;;34.17;17.13;;;;;;;;;;6126342;23;20390;-89
2023/04/01 05:28:41;;;;;;;28.08;14.40;;;;;;;;;;6131136;23;20014;-94
2023/04/01 05:31:09;;;;;;;22.92;13.27;;;;;;;;;;6106985;23;20067;-91
2023/04/01 05:33:40;;;;;;;29.92;14.27;;;;;;;;;;6107107;23;20037;-90
2023/04/01 05:36:13;;;;;;;20.58;11.50;;;;;;;;;;6130386;23;20148;-90
2023/04/01 05:38:39;;;;;;;24.83;12.40;;;;;;;;;;6130495;23;20428;-90
2023/04/01 05:41:07;;;;;;;23.48;12.68;;;;;;;;;;6107513;23;20024;-89
2023/04/01 05:43:37;;;;;;;20.70;12.18;;;;;;;;;;6132087;23;20002;-90
2023/04/01 05:46:21;;;;;;;17.55;10.48;;;;;;;;;;6110916;23;20010;-91
2023/04/01 05:48:53;;;;;;;20.80;11.50;;;;;;;;;;6107969;23;20002;-89
2023/04/01 05:51:19;;;;;;;17.33;10.52;;;;;;;;;;6106870;23;20051;-90
2023/04/01 05:53:45;;;;;;;14.25;9.85;;;;;;;;;;6106845;23;20088;-88
2023/04/01 05:56:11;;;;;;;14.77;9.02;;;;;;;;;;6130888;23;20119;-89
2023/04/01 05:58:41;;;;;;;10.13;7.13;;;;;;;;;;6107610;23;20008;-91
2023/04/01 06:01:09;;;;;;;10.95;7.20;;;;;;;;;;6131252;23;20009;-89
2023/04/01 06:03:35;;;;;;;5.75;5.13;;;;;;;;;;6106873;23;20333;-89
2023/04/01 06:06:03;;;;;;;6.13;5.00;;;;;;;;;;6130924;23;20005;-90
2023/04/01 06:08:32;;;;;;;6.15;5.32;;;;;;;;;;6155588;23;20084;-89
2023/04/01 06:10:59;;;;;;;6.35;5.13;;;;;;;;;;6131285;23;20005;-89
2023/04/01 06:13:32;;;;;;;4.97;4.47;;;;;;;;;;6106984;23;20009;-89
2023/04/01 06:16:01;;;;;;;9.27;6.28;;;;;;;;;;6107277;23;20028;-92
2023/04/01 06:18:46;;;;;;;16.80;7.90;;;;;;;;;;6131515;23;20002;-92
2023/04/01 06:21:27;;;;;;;8.20;5.70;;;;;;;;;;6106996;23;20033;-90
2023/04/01 06:24:04;;;;;;;4.45;4.05;;;;;;;;;;6104752;23;20040;-90
2023/04/01 06:26:38;;;;;;;4.38;3.85;;;;;;;;;;6130668;23;20092;-87
2023/04/01 06:29:44;;;;;;;5.40;4.05;;;;;;;;;;6099702;23;20032;-89
2023/04/01 06:32:16;;;;;;;7.07;4.32;;;;;;;;;;6065244;23;20010;-91
2023/04/01 06:34:42;;;;;;;5.13;4.35;;;;;;;;;;6065651;23;20116;-89
2023/04/01 06:37:16;;;;;;;6.68;4.15;;;;;;;;;;6071738;23;20465;-89
2023/04/01 06:39:59;;;;;;;5.57;4.30;;;;;;;;;;6076745;23;20085;-89
2023/04/01 06:42:24;;;;;;;3.63;3.20;;;;;;;;;;6077208;23;20001;-90
2023/04/01 06:44:55;;;;;;;5.07;3.25;;;;;;;;;;6076892;23;20385;-89
2023/04/01 06:48:14;;;;;;;4.13;2.95;;;;;;;;;;6104504;23;20016;-89
2023/04/01 06:51:09;;;;;;;4.28;3.20;;;;;;;;;;6065559;23;20039;-89
2023/04/01 06:54:16;;;;;;;3.63;3.10;;;;;;;;;;6105598;23;20010;-89
2023/04/01 06:57:25;;;;;;;5.32;3.17;;;;;;;;;;6125651;23;20018;-89
2023/04/01 06:59:51;;;;;;;3.50;3.03;;;;;;;;;;6099344;23;20016;-88
2023/04/01 07:02:28;;;;;;;4.88;3.30;;;;;;;;;;6125274;23;20029;-89
2023/04/01 07:04:55;;;;;;;3.33;3.03;;;;;;;;;;6125432;23;20017;-89
2023/04/01 07:07:41;;;;;;;7.15;3.53;;;;;;;;;;6124998;23;20002;-88
2023/04/01 07:10:22;;;;;;;5.20;3.08;;;;;;;;;;6077453;23;20049;-88
2023/04/01 07:13:40;;;;;;;8.65;3.97;;;;;;;;;;6065695;23;20090;-88
2023/04/01 07:16:17;;;;;;;4.20;2.63;;;;;;;;;;6100333;23;20015;-87
2023/04/01 07:18:45;;;;;;;4.95;3.25;;;;;;;;;;6099678;23;20303;-87
2023/04/01 07:21:20;;;;;;;4.32;2.92;;;;;;;;;;6123769;23;20062;-87
2023/04/01 07:23:47;;;;;;;3.30;2.65;;;;;;;;;;6124821;23;20006;-88
2023/04/01 07:26:55;;;;;;;4.78;3.00;;;;;;;;;;6111396;23;20480;-88
2023/04/01 07:29:25;;;;;;;3.05;2.67;;;;;;;;;;6129269;23;20064;-88
2023/04/01 07:32:12;;;;;;;3.60;2.72;;;;;;;;;;6105857;23;20109;-88
2023/04/01 07:34:41;;;;;;;4.07;3.05;;;;;;;;;;6129644;23;20009;-91
2023/04/01 07:37:18;;;;;;;3.80;2.75;;;;;;;;;;6130145;23;20018;-91
2023/04/01 07:40:10;;;;;;;4.60;3.45;;;;;;;;;;6106287;23;20013;-92
2023/04/01 07:42:44;;;;;;;5.68;3.85;;;;;;;;;;6106326;23;20009;-91
2023/04/01 07:45:21;;;;;;;7.65;4.15;;;;;;;;;;6104403;23;20013;-90
2023/04/01 07:48:01;;;;;;;5.30;3.75;;;;;;;;;;6105418;23;20028;-91
2023/04/01 07:50:28;;;;;;;4.22;3.33;;;;;;;;;;6105651;23;20002;-92
2023/04/01 07:52:57;;;;;;;5.03;3.83;;;;;;;;;;6106356;23;20052;-91
2023/04/01 07:55:39;;;;;;;4.75;3.47;;;;;;;;;;6106676;23;20013;-91
2023/04/01 07:58:14;;;;;;;4.93;3.22;;;;;;;;;;6106157;23;20005;-93
2023/04/01 08:00:57;;;;;;;4.10;2.67;;;;;;;;;;6106607;23;20001;-91
2023/04/01 08:04:04;;;;;;;4.05;2.70;;;;;;;;;;6107370;23;20001;-93
2023/04/01 08:10:21;;;;;;;3.90;3.00;;;;;;;;;;6084866;23;20111;-92
2023/04/01 08:13:11;;;;;;;3.35;2.83;;;;;;;;;;6120785;23;20009;-92
2023/04/01 08:16:17;;;;;;;3.60;3.30;;;;;;;;;;6130061;23;20017;-92
2023/04/01 08:18:53;;;;;;;3.28;2.97;;;;;;;;;;6106693;23;20010;-92
2023/04/01 08:21:37;;;;;;;3.42;3.00;;;;;;;;;;6105885;23;20013;-92
2023/04/01 08:27:42;;;;;;;3.35;3.05;;;;;;;;;;6113486;23;20053;-93
2023/04/01 08:30:18;;;;;;;4.93;3.47;;;;;;;;;;6105237;23;20057;-91
2023/04/01 08:32:55;;;;;;;5.90;2.92;;;;;;;;;;6100723;23;20075;-92
2023/04/01 08:35:42;;;;;;;3.95;2.80;;;;;;;;;;6101351;23;20014;-92
2023/04/01 08:38:16;;;;;;;4.03;3.15;;;;;;;;;;6101308;23;20006;-92
2023/04/01 08:40:55;;;;;;;4.45;3.10;;;;;;;;;;6101924;23;20006;-91
2023/04/01 08:43:25;;;;;;;5.22;3.38;;;;;;;;;;6101000;23;20017;-91
2023/04/01 08:46:11;;;;;;;5.82;2.88;;;;;;;;;;6101381;23;20010;-93
2023/04/01 08:49:09;;;;;;;4.50;2.78;;;;;;;;;;6125771;23;20381;-93
2023/04/01 08:58:30;;;;;;;5.68;3.72;;;;;;;;;;6125169;23;20018;-95
2023/04/01 09:05:25;;;;;;;;;;;;;;;;;;;;;
2023/04/01 09:12:29;;;;;;;;;;;;;;;;;;;;;
2023/04/01 09:26:13;;;;;;;3.95;3.55;;;;;;;;;;5827631;24;20021;-94
2023/04/01 09:28:55;;;;;;;3.88;3.58;;;;;;;;;;5860559;24;20048;-91
2023/04/01 09:39:20;;;;;;;;;;;;;;;;;;;;;
2023/04/01 10:01:02;;;;;;;;;;;;;;;;;;;;;
2023/04/01 10:04:09;;;;;;;4.63;3.83;;;;;;;;;;5842972;24;20034;-96
2023/04/01 10:10:51;;;;;;;3.85;3.45;;;;;;;;;;5872939;24;20090;-92
2023/04/01 10:20:20;;;;;;;2.38;2.17;;;;;;;;;;6155005;23;20088;-58
2023/04/01 10:22:49;;;;;;;1.83;1.73;;;;;;;;;;6129730;23;20500;-58
2023/04/01 10:25:29;;;;;;;1.67;1.58;;;;;;;;;;6154493;23;19997;-58
2023/04/01 10:28:22;;;;;;;2.50;2.30;;;;;;;;;;6131671;23;20029;-58
2023/04/01 10:31:15;;;;;;;2.30;2.10;;;;;;;;;;6155830;23;20497;-58
2023/04/01 10:33:51;;;;;;;3.90;3.25;;;;;;;;;;6154170;23;20016;-58
2023/04/01 10:36:23;;;;;;;3.20;2.90;;;;;;;;;;6105195;23;20394;-59
2023/04/01 10:39:07;;;;;;;3.45;3.15;;;;;;;;;;6154173;23;20064;-58
2023/04/01 10:42:00;;;;;;;3.20;2.90;;;;;;;;;;6154146;23;20029;-59
2023/04/01 10:45:13;;;;;;;2.58;2.38;;;;;;;;;;6155352;23;20009;-58
2023/04/01 10:48:01;;;;;;;4.65;2.85;;;;;;;;;;6129373;23;20060;-58
2023/04/01 10:50:45;;;;;;;3.17;2.92;;;;;;;;;;6129456;23;20370;-58
2023/04/01 10:53:33;;;;;;;4.10;3.72;;;;;;;;;;6129478;23;20060;-59
2023/04/01 10:56:28;;;;;;;8.38;5.30;;;;;;;;;;6139558;23;20013;-59
2023/04/01 10:59:44;;;;;;;6.32;4.95;;;;;;;;;;6155405;23;20017;-58
2023/04/01 11:02:47;;;;;;;8.23;5.88;;;;;;;;;;6155614;23;20206;-58
2023/04/01 11:05:40;;;;;;;6.32;5.07;;;;;;;;;;6155556;23;20519;-58
2023/04/01 11:08:20;;;;;;;5.95;4.43;;;;;;;;;;6155790;23;20005;-58
2023/04/01 11:11:04;;;;;;;7.05;4.63;;;;;;;;;;6153868;23;20040;-58
2023/04/01 11:13:47;;;;;;;5.22;3.90;;;;;;;;;;6129214;23;20039;-58
2023/04/01 11:16:12;;;;;;;;;;;;;;;;;;6154372;23;20012;-58
2023/04/01 11:18:40;;;;;;;3.90;3.50;;;;;;;;;;6129019;23;19912;-59
2023/04/01 11:21:25;;;;;;;3.20;2.92;;;;;;;;;;6153702;23;20307;-59
2023/04/01 11:24:02;;;;;;;3.90;3.53;;;;;;;;;;6129284;23;20072;-58
2023/04/01 11:26:33;;;;;;;4.28;3.88;;;;;;;;;;6104842;23;20088;-59
2023/04/01 11:29:43;;;;;;;5.60;4.85;;;;;;;;;;6119045;23;20044;-58
2023/04/01 11:32:19;;;;;;;6.35;5.10;;;;;;;;;;6129103;23;20005;-58
2023/04/01 11:34:48;;;;;;;6.07;5.05;;;;;;;;;;6155209;23;20005;-58
2023/04/01 11:37:17;;;;;;;8.13;6.50;;;;;;;;;;6128970;23;20024;-58
2023/04/01 11:40:03;;;;;;;6.22;5.38;;;;;;;;;;6155023;23;20071;-59
2023/04/01 11:42:58;;;;;;;6.72;5.53;;;;;;;;;;6094957;23;20013;-58
2023/04/01 11:45:46;;;;;;;5.72;5.18;;;;;;;;;;6155196;23;20105;-58
2023/04/01 11:48:22;;;;;;;7.22;5.60;;;;;;;;;;6155122;23;20001;-58
2023/04/01 11:50:48;;;;;;;4.07;3.67;;;;;;;;;;6129269;23;20002;-59
2023/04/01 11:53:13;;;;;;;4.53;4.07;;;;;;;;;;6130290;23;20077;-58
2023/04/01 11:55:50;;;;;;;7.05;4.15;;;;;;;;;;6130611;23;20080;-58
2023/04/01 11:58:34;;;;;;;3.53;3.20;;;;;;;;;;6156288;23;20032;-58
2023/04/01 12:01:19;;;;;;;3.40;3.10;;;;;;;;;;6156911;23;20430;-59
2023/04/01 12:03:44;;;;;;;3.88;3.53;;;;;;;;;;6156633;23;20006;-58
2023/04/01 12:06:21;;;;;;;3.35;3.05;;;;;;;;;;6130085;23;20051;-58
2023/04/01 12:08:53;;;;;;;2.97;2.30;;;;;;;;;;6156982;23;20061;-58
2023/04/01 12:11:27;;;;;;;2.45;2.28;;;;;;;;;;6130174;23;20060;-59
2023/04/01 12:14:01;;;;;;;2.35;2.20;;;;;;;;;;6156254;23;20010;-58
2023/04/01 12:16:38;;;;;;;1.98;1.88;;;;;;;;;;6154623;23;20044;-58
2023/04/01 12:19:12;;;;;;;2.25;2.05;;;;;;;;;;6156184;23;20060;-58
2023/04/01 12:21:46;;;;;;;1.98;1.85;;;;;;;;;;6156538;23;20077;-58
2023/04/01 12:24:11;;;;;;;2.65;2.20;;;;;;;;;;6156530;23;20025;-58
2023/04/01 12:26:48;;;;;;;2.33;2.13;;;;;;;;;;6156601;23;20419;-58
2023/04/01 12:29:32;;;;;;;2.55;2.35;;;;;;;;;;6156195;23;20029;-58
2023/04/01 12:32:18;;;;;;;2.80;2.05;;;;;;;;;;6130908;23;20006;-58
2023/04/01 12:34:57;;;;;;;2.53;2.22;;;;;;;;;;6137348;23;20013;-58
2023/04/01 12:37:37;;;;;;;2.28;2.10;;;;;;;;;;6158343;23;20013;-58
2023/04/01 12:40:17;;;;;;;3.10;2.50;;;;;;;;;;6158448;23;20005;-58
2023/04/01 12:42:57;;;;;;;2.40;1.63;;;;;;;;;;6132096;23;20006;-58
2023/04/01 12:45:29;;;;;;;2.25;1.90;;;;;;;;;;6158318;23;20333;-58
2023/04/01 12:48:14;;;;;;;2.28;2.08;;;;;;;;;;6158359;23;20012;-58
2023/04/01 12:51:00;;;;;;;2.45;1.95;;;;;;;;;;6131982;23;20009;-58
2023/04/01 12:53:33;;;;;;;2.25;1.90;;;;;;;;;;6156368;23;20330;-59
2023/04/01 12:55:59;;;;;;;1.77;1.60;;;;;;;;;;6132185;23;20013;-58
2023/04/01 12:58:43;;;;;;;1.50;1.40;;;;;;;;;;6158337;23;20347;-58
2023/04/01 13:01:26;;;;;;;1.77;1.50;;;;;;;;;;6158252;23;20005;-58
2023/04/01 13:03:55;;;;;;;1.63;1.52;;;;;;;;;;6131523;23;20012;-58
2023/04/01 13:06:23;;;;;;;2.47;2.25;;;;;;;;;;6131661;23;20013;-58
2023/04/01 13:08:57;;;;;;;3.65;3.35;;;;;;;;;;6156954;23;20013;-57
2023/04/01 13:11:40;;;;;;;3.72;3.42;;;;;;;;;;6158063;23;20480;-58
2023/04/01 13:14:05;;;;;;;3.50;3.20;;;;;;;;;;6158082;23;20037;-60
2023/04/01 13:16:50;;;;;;;3.22;2.92;;;;;;;;;;6131645;23;20441;-71
2023/04/01 13:19:31;;;;;;;2.38;2.15;;;;;;;;;;6157552;23;20013;-70
2023/04/01 13:21:59;;;;;;;1.98;1.88;;;;;;;;;;6158105;23;20307;-70
2023/04/01 13:24:30;;;;;;;4.22;2.05;;;;;;;;;;6131503;23;20013;-70
2023/04/01 13:27:11;;;;;;;2.35;2.15;;;;;;;;;;6132560;23;20006;-70
2023/04/01 13:29:40;;;;;;;1.90;1.80;;;;;;;;;;6131958;23;20005;-70
2023/04/01 13:32:21;;;;;;;1.92;1.63;;;;;;;;;;6157937;23;20010;-70
2023/04/01 13:34:50;;;;;;;3.33;2.60;;;;;;;;;;6107136;23;20009;-71
2023/04/01 13:37:25;;;;;;;3.85;3.30;;;;;;;;;;6131755;23;20093;-71
2023/04/01 13:40:05;;;;;;;2.90;2.60;;;;;;;;;;6157867;23;20329;-67
2023/04/01 13:42:35;;;;;;;2.03;1.83;;;;;;;;;;6131516;23;20006;-70
2023/04/01 13:45:02;;;;;;;4.07;3.67;;;;;;;;;;6157836;23;19990;-70
2023/04/01 13:47:30;;;;;;;3.28;2.60;;;;;;;;;;6158138;23;20081;-71
2023/04/01 13:50:15;;;;;;;3.20;2.40;;;;;;;;;;6157462;23;20005;-70
2023/04/01 13:52:46;;;;;;;3.30;2.30;;;;;;;;;;6132032;23;20009;-70
2023/04/01 13:55:33;;;;;;;3.15;2.13;;;;;;;;;;6157717;23;20014;-70
2023/04/01 13:58:16;;;;;;;2.60;2.33;;;;;;;;;;6157348;23;20013;-70
2023/04/01 14:01:00;;;;;;;2.80;2.45;;;;;;;;;;6131144;23;20008;-71
2023/04/01 14:03:25;;;;;;;3.03;2.67;;;;;;;;;;6157978;23;19998;-70
2023/04/01 14:05:56;;;;;;;3.13;2.63;;;;;;;;;;6157299;23;20016;-71
2023/04/01 14:08:22;;;;;;;3.30;2.90;;;;;;;;;;6155685;23;20006;-71
2023/04/01 14:10:47;;;;;;;4.55;2.72;;;;;;;;;;6131155;23;20004;-70
2023/04/01 14:13:18;;;;;;;3.55;3.20;;;;;;;;;;6157240;23;20036;-71
2023/04/01 14:15:50;;;;;;;3.75;2.75;;;;;;;;;;6156944;23;20013;-70
2023/04/01 14:18:18;;;;;;;3.25;2.92;;;;;;;;;;6157232;23;20441;-71
2023/04/01 14:20:48;;;;;;;3.95;3.10;;;;;;;;;;6157170;23;20002;-71
2023/04/01 14:23:13;;;;;;;7.43;6.03;;;;;;;;;;6130071;23;20009;-71
2023/04/01 14:25:48;;;;;;;7.10;5.50;;;;;;;;;;6154955;23;20269;-71
2023/04/01 14:28:18;;;;;;;3.67;2.05;;;;;;;;;;6154550;23;20009;-71
2023/04/01 14:30:58;;;;;;;3.40;2.22;;;;;;;;;;6155511;23;20009;-71
2023/04/01 14:33:24;;;;;;;;;;;;;;;;;;6154231;23;20451;-71
2023/04/01 14:35:55;;;;;;;2.23;1.80;;;;;;;;;;6156092;23;19956;-71
2023/04/01 14:38:32;;;;;;;1.00;0.93;;;;;;;;;;6155117;23;20237;-72
2023/04/01 14:41:06;;;;;;;1.20;1.05;;;;;;;;;;6154173;23;20056;-71
2023/04/01 14:43:31;;;;;;;1.60;1.40;;;;;;;;;;6129231;23;20334;-71
2023/04/01 14:46:06;;;;;;;1.00;1.00;;;;;;;;;;6155297;23;20005;-66
2023/04/01 14:48:50;;;;;;;1.40;1.10;;;;;;;;;;6155734;23;20010;-71
2023/04/01 14:51:18;;;;;;;1.15;1.08;;;;;;;;;;6155396;23;20005;-72
2023/04/01 14:54:04;;;;;;;1.50;1.40;;;;;;;;;;6129153;23;20085;-72
2023/04/01 14:56:35;;;;;;;2.75;1.40;;;;;;;;;;6113344;23;20464;-72
2023/04/01 14:59:01;;;;;;;1.88;1.73;;;;;;;;;;6155515;23;20005;-71
2023/04/01 15:01:42;;;;;;;1.90;1.80;;;;;;;;;;6155568;23;20051;-70
2023/04/01 15:04:10;;;;;;;2.22;2.03;;;;;;;;;;6155593;23;20009;-70
2023/04/01 15:06:54;;;;;;;3.58;2.67;;;;;;;;;;6153943;23;20342;-71
2023/04/01 15:09:29;;;;;;;7.55;4.90;;;;;;;;;;6155412;23;20010;-70
2023/04/01 15:12:13;;;;;;;6.97;5.05;;;;;;;;;;6155429;23;20013;-70
2023/04/01 15:14:38;;;;;;;4.22;3.38;;;;;;;;;;6155227;23;20381;-70
2023/04/01 15:17:09;;;;;;;7.00;3.40;;;;;;;;;;6155071;23;20002;-70
2023/04/01 15:19:53;;;;;;;2.53;2.33;;;;;;;;;;6155089;23;20009;-70
2023/04/01 15:22:27;;;;;;;2.88;2.50;;;;;;;;;;6155079;23;20012;-70
2023/04/01 15:24:53;;;;;;;4.00;2.47;;;;;;;;;;6155327;23;20057;-70
2023/04/01 15:27:24;;;;;;;3.15;2.42;;;;;;;;;;6153796;23;20024;-70
2023/04/01 15:30:04;;;;;;;2.35;2.15;;;;;;;;;;6129202;23;20010;-70
2023/04/01 15:32:38;;;;;;;3.40;2.30;;;;;;;;;;6129185;23;20009;-70
2023/04/01 15:35:09;;;;;;;2.95;2.75;;;;;;;;;;6129349;23;20011;-70
2023/04/01 15:37:54;;;;;;;2.15;1.95;;;;;;;;;;6155180;23;20041;-70
2023/04/01 15:40:26;;;;;;;2.30;1.90;;;;;;;;;;6154917;23;20060;-70
2023/04/01 15:42:52;;;;;;;3.45;2.13;;;;;;;;;;6154808;23;20006;-70
2023/04/01 15:45:27;;;;;;;2.87;2.67;;;;;;;;;;6155141;23;20068;-70
2023/04/01 15:47:52;;;;;;;4.55;3.05;;;;;;;;;;6155195;23;20236;-71
2023/04/01 15:50:39;;;;;;;3.53;2.80;;;;;;;;;;6129091;23;20441;-70
2023/04/01 15:53:18;;;;;;;4.70;2.67;;;;;;;;;;6135278;23;20745;-70
2023/04/01 15:55:53;;;;;;;3.00;2.70;;;;;;;;;;6155136;23;20346;-70
2023/04/01 15:58:23;;;;;;;2.75;2.53;;;;;;;;;;6154842;23;20371;-70
2023/04/01 16:01:10;;;;;;;2.60;2.40;;;;;;;;;;6155108;23;20087;-70
2023/04/01 16:03:41;;;;;;;3.50;3.20;;;;;;;;;;6155133;23;20006;-70
2023/04/01 16:06:12;;;;;;;3.80;3.10;;;;;;;;;;6155092;23;20009;-70
2023/04/01 16:08:38;;;;;;;4.30;3.45;;;;;;;;;;6156639;23;20006;-71
2023/04/01 16:11:22;;;;;;;3.90;3.42;;;;;;;;;;6157146;23;20020;-70
2023/04/01 16:14:00;;;;;;;3.75;3.20;;;;;;;;;;6157156;23;20016;-71
2023/04/01 16:16:30;;;;;;;3.40;2.88;;;;;;;;;;6157131;23;20080;-70
2023/04/01 16:19:08;;;;;;;3.03;2.72;;;;;;;;;;6157003;23;20016;-70
2023/04/01 16:21:51;;;;;;;4.15;3.05;;;;;;;;;;6157201;23;20029;-70
2023/04/01 16:24:17;;;;;;;4.15;3.70;;;;;;;;;;6157057;23;20006;-70
2023/04/01 16:27:14;;;;;;;5.22;4.05;;;;;;;;;;6155226;23;20070;-70
2023/04/01 16:29:40;;;;;;;5.55;4.38;;;;;;;;;;6091767;23;20014;-70
2023/04/01 16:32:11;;;;;;;7.00;4.35;;;;;;;;;;6156911;23;20014;-70
2023/04/01 16:34:44;;;;;;;5.93;4.70;;;;;;;;;;6155144;23;20013;-70
2023/04/01 16:37:15;;;;;;;8.90;5.40;;;;;;;;;;6156829;23;20207;-70
2023/04/01 16:40:01;;;;;;;9.82;6.03;;;;;;;;;;6157031;23;20008;-70
2023/04/01 16:42:46;;;;;;;9.05;6.05;;;;;;;;;;6156868;23;20493;-70
2023/04/01 16:45:28;;;;;;;9.45;6.53;;;;;;;;;;6156870;23;20093;-70
2023/04/01 16:47:56;;;;;;;11.13;7.00;;;;;;;;;;6156527;23;20010;-70